sensor_id;sensor_type;location;lat;lon;timestamp;P1;durP1;ratioP1;P2;durP2;ratioP2
47523;SDS011;33253;42.144;25.884;2023-11-22T00:00:15;23.15;;;14.10;;
47523;SDS011;33253;42.144;25.884;2023-11-22T00:02:41;21.75;;;13.57;;
47523;SDS011;33253;42.144;25.884;2023-11-22T00:05:07;21.25;;;13.25;;
47523;SDS011;33253;42.144;25.884;2023-11-22T00:07:32;20.70;;;13.80;;
47523;SDS011;33253;42.144;25.884;2023-11-22T00:09:58;23.30;;;14.48;;
47523;SDS011;33253;42.144;25.884;2023-11-22T00:12:24;22.73;;;14.40;;
47523;SDS011;33253;42.144;25.884;2023-11-22T00:14:50;22.88;;;13.55;;
47523;SDS011;33253;42.144;25.884;2023-11-22T00:17:16;19.77;;;13.32;;
47523;SDS011;33253;42.144;25.884;2023-11-22T00:19:44;22.52;;;14.82;;
47523;SDS011;33253;42.144;25.884;2023-11-22T00:22:10;28.25;;;14.63;;
47523;SDS011;33253;42.144;25.884;2023-11-22T00:24:39;24.45;;;14.27;;
47523;SDS011;33253;42.144;25.884;2023-11-22T00:27:05;20.02;;;14.30;;
47523;SDS011;33253;42.144;25.884;2023-11-22T00:29:31;21.20;;;13.57;;
47523;SDS011;33253;42.144;25.884;2023-11-22T00:31:57;23.98;;;14.38;;
47523;SDS011;33253;42.144;25.884;2023-11-22T00:34:22;21.13;;;13.20;;
47523;SDS011;33253;42.144;25.884;2023-11-22T00:36:48;22.83;;;14.20;;
47523;SDS011;33253;42.144;25.884;2023-11-22T00:39:14;20.75;;;14.50;;
47523;SDS011;33253;42.144;25.884;2023-11-22T00:41:39;21.95;;;13.80;;
47523;SDS011;33253;42.144;25.884;2023-11-22T00:44:05;22.50;;;13.77;;
47523;SDS011;33253;42.144;25.884;2023-11-22T00:46:34;24.35;;;14.23;;
47523;SDS011;33253;42.144;25.884;2023-11-22T00:48:59;21.17;;;14.02;;
47523;SDS011;33253;42.144;25.884;2023-11-22T00:51:25;27.38;;;14.27;;
47523;SDS011;33253;42.144;25.884;2023-11-22T00:53:51;20.08;;;15.05;;
47523;SDS011;33253;42.144;25.884;2023-11-22T00:56:17;22.27;;;15.60;;
47523;SDS011;33253;42.144;25.884;2023-11-22T00:58:42;22.60;;;14.32;;
47523;SDS011;33253;42.144;25.884;2023-11-22T01:01:07;26.35;;;15.55;;
47523;SDS011;33253;42.144;25.884;2023-11-22T01:03:33;22.17;;;14.23;;
47523;SDS011;33253;42.144;25.884;2023-11-22T01:06:00;23.00;;;14.73;;
47523;SDS011;33253;42.144;25.884;2023-11-22T01:08:25;22.48;;;14.70;;
47523;SDS011;33253;42.144;25.884;2023-11-22T01:10:51;22.10;;;14.50;;
47523;SDS011;33253;42.144;25.884;2023-11-22T01:13:16;20.00;;;14.07;;
47523;SDS011;33253;42.144;25.884;2023-11-22T01:15:43;20.38;;;13.27;;
47523;SDS011;33253;42.144;25.884;2023-11-22T01:18:10;29.35;;;15.13;;
47523;SDS011;33253;42.144;25.884;2023-11-22T01:20:35;20.58;;;13.73;;
47523;SDS011;33253;42.144;25.884;2023-11-22T01:23:01;22.55;;;13.15;;
47523;SDS011;33253;42.144;25.884;2023-11-22T01:25:26;21.65;;;13.77;;
47523;SDS011;33253;42.144;25.884;2023-11-22T01:27:53;22.90;;;14.35;;
47523;SDS011;33253;42.144;25.884;2023-11-22T01:30:18;21.08;;;14.20;;
47523;SDS011;33253;42.144;25.884;2023-11-22T01:32:44;19.13;;;13.80;;
47523;SDS011;33253;42.144;25.884;2023-11-22T01:35:10;22.58;;;15.30;;
47523;SDS011;33253;42.144;25.884;2023-11-22T01:37:35;21.52;;;14.23;;
47523;SDS011;33253;42.144;25.884;2023-11-22T01:40:00;24.10;;;14.02;;
47523;SDS011;33253;42.144;25.884;2023-11-22T01:42:28;20.52;;;13.80;;
47523;SDS011;33253;42.144;25.884;2023-11-22T01:44:54;22.42;;;14.68;;
47523;SDS011;33253;42.144;25.884;2023-11-22T01:47:19;23.13;;;14.25;;
47523;SDS011;33253;42.144;25.884;2023-11-22T01:49:45;19.95;;;15.10;;
47523;SDS011;33253;42.144;25.884;2023-11-22T01:52:11;18.73;;;13.70;;
47523;SDS011;33253;42.144;25.884;2023-11-22T01:54:37;21.40;;;14.35;;
47523;SDS011;33253;42.144;25.884;2023-11-22T01:57:03;21.85;;;14.95;;
47523;SDS011;33253;42.144;25.884;2023-11-22T01:59:33;21.88;;;13.68;;
47523;SDS011;33253;42.144;25.884;2023-11-22T02:01:58;20.58;;;13.80;;
47523;SDS011;33253;42.144;25.884;2023-11-22T02:04:24;22.27;;;13.85;;
47523;SDS011;33253;42.144;25.884;2023-11-22T02:06:50;21.45;;;13.88;;
47523;SDS011;33253;42.144;25.884;2023-11-22T02:09:16;21.15;;;13.85;;
47523;SDS011;33253;42.144;25.884;2023-11-22T02:11:43;21.95;;;14.40;;
47523;SDS011;33253;42.144;25.884;2023-11-22T02:14:10;20.05;;;14.18;;
47523;SDS011;33253;42.144;25.884;2023-11-22T02:16:36;22.17;;;13.82;;
47523;SDS011;33253;42.144;25.884;2023-11-22T02:19:04;23.75;;;13.18;;
47523;SDS011;33253;42.144;25.884;2023-11-22T02:21:32;23.50;;;15.90;;
47523;SDS011;33253;42.144;25.884;2023-11-22T02:24:00;22.83;;;15.32;;
47523;SDS011;33253;42.144;25.884;2023-11-22T02:26:26;26.52;;;16.60;;
47523;SDS011;33253;42.144;25.884;2023-11-22T02:28:52;27.58;;;16.90;;
47523;SDS011;33253;42.144;25.884;2023-11-22T02:31:18;23.73;;;15.85;;
47523;SDS011;33253;42.144;25.884;2023-11-22T02:33:43;25.50;;;17.02;;
47523;SDS011;33253;42.144;25.884;2023-11-22T02:36:09;25.77;;;16.92;;
47523;SDS011;33253;42.144;25.884;2023-11-22T02:38:37;24.80;;;16.75;;
47523;SDS011;33253;42.144;25.884;2023-11-22T02:41:03;24.88;;;16.67;;
47523;SDS011;33253;42.144;25.884;2023-11-22T02:43:29;21.70;;;15.60;;
47523;SDS011;33253;42.144;25.884;2023-11-22T02:45:55;23.23;;;15.80;;
47523;SDS011;33253;42.144;25.884;2023-11-22T02:48:20;25.73;;;16.70;;
47523;SDS011;33253;42.144;25.884;2023-11-22T02:50:46;28.13;;;16.67;;
47523;SDS011;33253;42.144;25.884;2023-11-22T02:53:11;22.83;;;15.65;;
47523;SDS011;33253;42.144;25.884;2023-11-22T02:55:37;22.20;;;15.55;;
47523;SDS011;33253;42.144;25.884;2023-11-22T02:58:03;26.00;;;16.40;;
47523;SDS011;33253;42.144;25.884;2023-11-22T03:00:29;24.42;;;16.50;;
47523;SDS011;33253;42.144;25.884;2023-11-22T03:02:54;27.48;;;16.50;;
47523;SDS011;33253;42.144;25.884;2023-11-22T03:05:21;23.88;;;15.25;;
47523;SDS011;33253;42.144;25.884;2023-11-22T03:07:47;21.88;;;14.45;;
47523;SDS011;33253;42.144;25.884;2023-11-22T03:10:12;25.42;;;15.50;;
47523;SDS011;33253;42.144;25.884;2023-11-22T03:12:38;23.05;;;14.70;;
47523;SDS011;33253;42.144;25.884;2023-11-22T03:15:04;21.30;;;15.38;;
47523;SDS011;33253;42.144;25.884;2023-11-22T03:17:30;23.35;;;14.98;;
47523;SDS011;33253;42.144;25.884;2023-11-22T03:19:56;19.48;;;15.25;;
47523;SDS011;33253;42.144;25.884;2023-11-22T03:22:26;23.98;;;15.75;;
47523;SDS011;33253;42.144;25.884;2023-11-22T03:24:55;22.92;;;15.48;;
47523;SDS011;33253;42.144;25.884;2023-11-22T03:27:20;26.77;;;15.05;;
47523;SDS011;33253;42.144;25.884;2023-11-22T03:29:47;26.25;;;16.40;;
47523;SDS011;33253;42.144;25.884;2023-11-22T03:32:13;27.92;;;16.10;;
47523;SDS011;33253;42.144;25.884;2023-11-22T03:34:38;27.10;;;18.30;;
47523;SDS011;33253;42.144;25.884;2023-11-22T03:37:04;26.27;;;18.02;;
47523;SDS011;33253;42.144;25.884;2023-11-22T03:39:29;26.70;;;17.33;;
47523;SDS011;33253;42.144;25.884;2023-11-22T03:41:55;26.60;;;17.45;;
47523;SDS011;33253;42.144;25.884;2023-11-22T03:44:20;25.90;;;17.85;;
47523;SDS011;33253;42.144;25.884;2023-11-22T03:46:46;28.05;;;18.67;;
47523;SDS011;33253;42.144;25.884;2023-11-22T03:49:11;26.75;;;18.67;;
47523;SDS011;33253;42.144;25.884;2023-11-22T03:51:38;22.55;;;15.73;;
47523;SDS011;33253;42.144;25.884;2023-11-22T03:54:04;22.60;;;15.00;;
47523;SDS011;33253;42.144;25.884;2023-11-22T03:56:30;23.40;;;15.32;;
47523;SDS011;33253;42.144;25.884;2023-11-22T03:58:56;25.55;;;17.02;;
47523;SDS011;33253;42.144;25.884;2023-11-22T04:01:21;23.65;;;16.95;;
47523;SDS011;33253;42.144;25.884;2023-11-22T04:03:47;28.45;;;16.90;;
47523;SDS011;33253;42.144;25.884;2023-11-22T04:06:16;28.15;;;17.58;;
47523;SDS011;33253;42.144;25.884;2023-11-22T04:08:44;25.48;;;17.05;;
47523;SDS011;33253;42.144;25.884;2023-11-22T04:11:11;25.98;;;17.48;;
47523;SDS011;33253;42.144;25.884;2023-11-22T04:13:39;25.45;;;15.93;;
47523;SDS011;33253;42.144;25.884;2023-11-22T04:16:05;23.40;;;16.63;;
47523;SDS011;33253;42.144;25.884;2023-11-22T04:18:34;22.75;;;15.88;;
47523;SDS011;33253;42.144;25.884;2023-11-22T04:21:00;22.20;;;15.25;;
47523;SDS011;33253;42.144;25.884;2023-11-22T04:23:28;25.38;;;18.25;;
47523;SDS011;33253;42.144;25.884;2023-11-22T04:25:53;22.42;;;16.20;;
47523;SDS011;33253;42.144;25.884;2023-11-22T04:28:19;26.33;;;17.58;;
47523;SDS011;33253;42.144;25.884;2023-11-22T04:30:44;20.95;;;14.82;;
47523;SDS011;33253;42.144;25.884;2023-11-22T04:33:10;21.67;;;15.70;;
47523;SDS011;33253;42.144;25.884;2023-11-22T04:35:36;22.83;;;15.38;;
47523;SDS011;33253;42.144;25.884;2023-11-22T04:38:04;21.23;;;15.13;;
47523;SDS011;33253;42.144;25.884;2023-11-22T04:40:30;24.20;;;16.23;;
47523;SDS011;33253;42.144;25.884;2023-11-22T04:42:56;20.52;;;14.80;;
47523;SDS011;33253;42.144;25.884;2023-11-22T04:45:21;24.25;;;15.15;;
47523;SDS011;33253;42.144;25.884;2023-11-22T04:47:47;25.08;;;16.05;;
47523;SDS011;33253;42.144;25.884;2023-11-22T04:50:14;23.85;;;15.90;;
47523;SDS011;33253;42.144;25.884;2023-11-22T04:52:39;26.58;;;15.52;;
47523;SDS011;33253;42.144;25.884;2023-11-22T04:55:05;23.60;;;14.30;;
47523;SDS011;33253;42.144;25.884;2023-11-22T04:57:31;29.13;;;14.88;;
47523;SDS011;33253;42.144;25.884;2023-11-22T04:59:56;22.83;;;14.90;;
47523;SDS011;33253;42.144;25.884;2023-11-22T05:02:22;22.33;;;15.07;;
47523;SDS011;33253;42.144;25.884;2023-11-22T05:04:47;26.77;;;15.23;;
47523;SDS011;33253;42.144;25.884;2023-11-22T05:07:14;25.88;;;14.90;;
47523;SDS011;33253;42.144;25.884;2023-11-22T05:09:41;27.67;;;14.60;;
47523;SDS011;33253;42.144;25.884;2023-11-22T05:12:09;21.67;;;13.90;;
47523;SDS011;33253;42.144;25.884;2023-11-22T05:14:36;23.42;;;14.70;;
47523;SDS011;33253;42.144;25.884;2023-11-22T05:17:02;25.27;;;16.85;;
47523;SDS011;33253;42.144;25.884;2023-11-22T05:19:28;26.25;;;17.48;;
47523;SDS011;33253;42.144;25.884;2023-11-22T05:21:55;27.17;;;15.20;;
47523;SDS011;33253;42.144;25.884;2023-11-22T05:24:20;24.80;;;16.48;;
47523;SDS011;33253;42.144;25.884;2023-11-22T05:26:46;28.42;;;15.93;;
47523;SDS011;33253;42.144;25.884;2023-11-22T05:29:11;24.38;;;16.10;;
47523;SDS011;33253;42.144;25.884;2023-11-22T05:31:37;24.23;;;15.63;;
47523;SDS011;33253;42.144;25.884;2023-11-22T05:34:02;25.60;;;16.58;;
47523;SDS011;33253;42.144;25.884;2023-11-22T05:36:28;23.35;;;15.50;;
47523;SDS011;33253;42.144;25.884;2023-11-22T05:38:54;27.00;;;15.73;;
47523;SDS011;33253;42.144;25.884;2023-11-22T05:41:20;24.30;;;15.25;;
47523;SDS011;33253;42.144;25.884;2023-11-22T05:43:46;26.33;;;15.43;;
47523;SDS011;33253;42.144;25.884;2023-11-22T05:46:11;31.90;;;16.05;;
47523;SDS011;33253;42.144;25.884;2023-11-22T05:48:37;23.30;;;15.52;;
47523;SDS011;33253;42.144;25.884;2023-11-22T05:51:03;26.13;;;16.55;;
47523;SDS011;33253;42.144;25.884;2023-11-22T05:53:28;25.38;;;15.07;;
47523;SDS011;33253;42.144;25.884;2023-11-22T05:55:54;21.27;;;15.15;;
47523;SDS011;33253;42.144;25.884;2023-11-22T05:58:19;27.25;;;14.52;;
47523;SDS011;33253;42.144;25.884;2023-11-22T06:00:46;31.30;;;18.00;;
47523;SDS011;33253;42.144;25.884;2023-11-22T06:03:12;29.63;;;17.63;;
47523;SDS011;33253;42.144;25.884;2023-11-22T06:05:39;26.65;;;17.23;;
47523;SDS011;33253;42.144;25.884;2023-11-22T06:08:05;25.30;;;15.55;;
47523;SDS011;33253;42.144;25.884;2023-11-22T06:10:30;29.73;;;16.50;;
47523;SDS011;33253;42.144;25.884;2023-11-22T06:12:56;27.70;;;16.30;;
47523;SDS011;33253;42.144;25.884;2023-11-22T06:15:21;36.70;;;17.55;;
47523;SDS011;33253;42.144;25.884;2023-11-22T06:17:47;26.65;;;16.27;;
47523;SDS011;33253;42.144;25.884;2023-11-22T06:20:13;29.75;;;17.83;;
47523;SDS011;33253;42.144;25.884;2023-11-22T06:22:39;37.30;;;22.05;;
47523;SDS011;33253;42.144;25.884;2023-11-22T06:25:10;36.22;;;19.55;;
47523;SDS011;33253;42.144;25.884;2023-11-22T06:27:36;30.52;;;18.42;;
47523;SDS011;33253;42.144;25.884;2023-11-22T06:30:02;31.48;;;17.45;;
47523;SDS011;33253;42.144;25.884;2023-11-22T06:32:28;30.70;;;18.35;;
47523;SDS011;33253;42.144;25.884;2023-11-22T06:34:54;25.73;;;16.90;;
47523;SDS011;33253;42.144;25.884;2023-11-22T06:37:19;24.77;;;16.23;;
47523;SDS011;33253;42.144;25.884;2023-11-22T06:39:46;30.60;;;17.13;;
47523;SDS011;33253;42.144;25.884;2023-11-22T06:42:13;26.10;;;16.10;;
47523;SDS011;33253;42.144;25.884;2023-11-22T06:45:00;27.48;;;16.05;;
47523;SDS011;33253;42.144;25.884;2023-11-22T06:47:27;27.02;;;18.20;;
47523;SDS011;33253;42.144;25.884;2023-11-22T06:49:54;31.75;;;17.20;;
47523;SDS011;33253;42.144;25.884;2023-11-22T06:52:26;30.55;;;17.83;;
47523;SDS011;33253;42.144;25.884;2023-11-22T06:54:53;27.50;;;17.13;;
47523;SDS011;33253;42.144;25.884;2023-11-22T06:57:18;28.98;;;16.73;;
47523;SDS011;33253;42.144;25.884;2023-11-22T06:59:47;23.05;;;16.13;;
47523;SDS011;33253;42.144;25.884;2023-11-22T07:02:14;28.67;;;16.38;;
47523;SDS011;33253;42.144;25.884;2023-11-22T07:04:40;23.75;;;16.17;;
47523;SDS011;33253;42.144;25.884;2023-11-22T07:07:05;27.10;;;16.50;;
47523;SDS011;33253;42.144;25.884;2023-11-22T07:09:32;24.55;;;16.67;;
47523;SDS011;33253;42.144;25.884;2023-11-22T07:11:58;24.02;;;16.42;;
47523;SDS011;33253;42.144;25.884;2023-11-22T07:14:24;26.55;;;17.05;;
47523;SDS011;33253;42.144;25.884;2023-11-22T07:16:50;24.73;;;16.08;;
47523;SDS011;33253;42.144;25.884;2023-11-22T07:19:15;23.90;;;16.00;;
47523;SDS011;33253;42.144;25.884;2023-11-22T07:21:41;20.98;;;15.82;;
47523;SDS011;33253;42.144;25.884;2023-11-22T07:24:07;23.10;;;16.55;;
47523;SDS011;33253;42.144;25.884;2023-11-22T07:26:34;27.58;;;16.92;;
47523;SDS011;33253;42.144;25.884;2023-11-22T07:28:59;24.83;;;16.52;;
47523;SDS011;33253;42.144;25.884;2023-11-22T07:31:25;20.25;;;15.20;;
47523;SDS011;33253;42.144;25.884;2023-11-22T07:33:51;26.48;;;16.58;;
47523;SDS011;33253;42.144;25.884;2023-11-22T07:36:16;21.60;;;15.07;;
47523;SDS011;33253;42.144;25.884;2023-11-22T07:38:42;27.48;;;16.00;;
47523;SDS011;33253;42.144;25.884;2023-11-22T07:41:08;22.95;;;15.57;;
47523;SDS011;33253;42.144;25.884;2023-11-22T07:43:33;25.33;;;15.45;;
47523;SDS011;33253;42.144;25.884;2023-11-22T07:45:59;24.65;;;16.73;;
47523;SDS011;33253;42.144;25.884;2023-11-22T07:48:26;116.88;;;74.88;;
47523;SDS011;33253;42.144;25.884;2023-11-22T07:50:53;59.55;;;39.42;;
47523;SDS011;33253;42.144;25.884;2023-11-22T07:53:19;46.10;;;28.80;;
47523;SDS011;33253;42.144;25.884;2023-11-22T07:55:45;36.83;;;22.50;;
47523;SDS011;33253;42.144;25.884;2023-11-22T07:58:10;34.20;;;21.80;;
47523;SDS011;33253;42.144;25.884;2023-11-22T08:00:36;34.10;;;22.27;;
47523;SDS011;33253;42.144;25.884;2023-11-22T08:03:02;28.88;;;21.30;;
47523;SDS011;33253;42.144;25.884;2023-11-22T08:05:28;31.42;;;21.27;;
47523;SDS011;33253;42.144;25.884;2023-11-22T08:07:54;30.92;;;21.80;;
47523;SDS011;33253;42.144;25.884;2023-11-22T08:10:20;36.78;;;22.35;;
47523;SDS011;33253;42.144;25.884;2023-11-22T08:12:46;32.42;;;21.58;;
47523;SDS011;33253;42.144;25.884;2023-11-22T08:15:13;29.00;;;21.95;;
47523;SDS011;33253;42.144;25.884;2023-11-22T08:17:39;36.10;;;22.48;;
47523;SDS011;33253;42.144;25.884;2023-11-22T08:20:06;30.20;;;23.00;;
47523;SDS011;33253;42.144;25.884;2023-11-22T08:22:35;32.38;;;22.10;;
47523;SDS011;33253;42.144;25.884;2023-11-22T08:25:02;29.92;;;22.20;;
47523;SDS011;33253;42.144;25.884;2023-11-22T08:27:29;32.25;;;24.25;;
47523;SDS011;33253;42.144;25.884;2023-11-22T08:29:54;29.25;;;21.70;;
47523;SDS011;33253;42.144;25.884;2023-11-22T08:32:20;30.17;;;22.15;;
47523;SDS011;33253;42.144;25.884;2023-11-22T08:34:49;31.05;;;22.08;;
47523;SDS011;33253;42.144;25.884;2023-11-22T08:37:15;29.30;;;21.60;;
47523;SDS011;33253;42.144;25.884;2023-11-22T08:39:40;33.78;;;21.15;;
47523;SDS011;33253;42.144;25.884;2023-11-22T08:42:06;33.63;;;20.52;;
47523;SDS011;33253;42.144;25.884;2023-11-22T08:44:35;30.40;;;22.08;;
47523;SDS011;33253;42.144;25.884;2023-11-22T08:47:01;29.98;;;20.77;;
47523;SDS011;33253;42.144;25.884;2023-11-22T08:49:28;29.95;;;21.50;;
47523;SDS011;33253;42.144;25.884;2023-11-22T08:51:53;30.13;;;20.48;;
47523;SDS011;33253;42.144;25.884;2023-11-22T08:54:19;30.42;;;21.58;;
47523;SDS011;33253;42.144;25.884;2023-11-22T08:56:44;30.77;;;21.02;;
47523;SDS011;33253;42.144;25.884;2023-11-22T08:59:12;34.05;;;22.50;;
47523;SDS011;33253;42.144;25.884;2023-11-22T09:01:37;30.90;;;21.20;;
47523;SDS011;33253;42.144;25.884;2023-11-22T09:04:03;30.63;;;20.58;;
47523;SDS011;33253;42.144;25.884;2023-11-22T09:06:29;28.55;;;19.75;;
47523;SDS011;33253;42.144;25.884;2023-11-22T09:08:54;29.85;;;20.95;;
47523;SDS011;33253;42.144;25.884;2023-11-22T09:11:21;27.58;;;20.58;;
47523;SDS011;33253;42.144;25.884;2023-11-22T09:13:47;30.08;;;21.23;;
47523;SDS011;33253;42.144;25.884;2023-11-22T09:16:15;28.23;;;20.95;;
47523;SDS011;33253;42.144;25.884;2023-11-22T09:18:42;31.98;;;22.13;;
47523;SDS011;33253;42.144;25.884;2023-11-22T09:21:08;30.02;;;21.38;;
47523;SDS011;33253;42.144;25.884;2023-11-22T09:23:34;30.70;;;21.10;;
47523;SDS011;33253;42.144;25.884;2023-11-22T09:26:01;33.00;;;21.83;;
47523;SDS011;33253;42.144;25.884;2023-11-22T09:28:27;34.05;;;21.63;;
47523;SDS011;33253;42.144;25.884;2023-11-22T09:30:53;37.15;;;27.25;;
47523;SDS011;33253;42.144;25.884;2023-11-22T09:33:26;40.15;;;24.80;;
47523;SDS011;33253;42.144;25.884;2023-11-22T09:35:52;34.10;;;22.67;;
47523;SDS011;33253;42.144;25.884;2023-11-22T09:38:17;30.42;;;21.65;;
47523;SDS011;33253;42.144;25.884;2023-11-22T09:40:49;26.65;;;21.27;;
47523;SDS011;33253;42.144;25.884;2023-11-22T09:43:15;28.25;;;20.23;;
47523;SDS011;33253;42.144;25.884;2023-11-22T09:45:44;36.92;;;21.25;;
47523;SDS011;33253;42.144;25.884;2023-11-22T09:50:56;32.58;;;23.80;;
47523;SDS011;33253;42.144;25.884;2023-11-22T09:53:39;35.35;;;25.55;;
47523;SDS011;33253;42.144;25.884;2023-11-22T09:56:10;38.03;;;24.63;;
47523;SDS011;33253;42.144;25.884;2023-11-22T09:58:39;31.17;;;23.13;;
47523;SDS011;33253;42.144;25.884;2023-11-22T10:01:08;36.58;;;24.92;;
47523;SDS011;33253;42.144;25.884;2023-11-22T10:03:39;34.55;;;25.63;;
47523;SDS011;33253;42.144;25.884;2023-11-22T10:06:05;29.00;;;21.55;;
47523;SDS011;33253;42.144;25.884;2023-11-22T10:08:31;34.88;;;22.52;;
47523;SDS011;33253;42.144;25.884;2023-11-22T10:10:58;36.00;;;23.02;;
47523;SDS011;33253;42.144;25.884;2023-11-22T10:13:24;31.95;;;22.80;;
47523;SDS011;33253;42.144;25.884;2023-11-22T10:15:51;34.97;;;24.33;;
47523;SDS011;33253;42.144;25.884;2023-11-22T10:18:20;30.55;;;23.42;;
47523;SDS011;33253;42.144;25.884;2023-11-22T10:20:48;36.47;;;25.58;;
47523;SDS011;33253;42.144;25.884;2023-11-22T10:23:17;34.55;;;23.40;;
47523;SDS011;33253;42.144;25.884;2023-11-22T10:25:44;35.55;;;25.25;;
47523;SDS011;33253;42.144;25.884;2023-11-22T10:28:18;36.60;;;25.20;;
47523;SDS011;33253;42.144;25.884;2023-11-22T10:30:45;38.05;;;25.80;;
47523;SDS011;33253;42.144;25.884;2023-11-22T10:33:11;35.60;;;25.33;;
47523;SDS011;33253;42.144;25.884;2023-11-22T10:35:41;35.65;;;25.65;;
47523;SDS011;33253;42.144;25.884;2023-11-22T10:38:10;37.60;;;25.85;;
47523;SDS011;33253;42.144;25.884;2023-11-22T10:40:39;37.55;;;25.73;;
47523;SDS011;33253;42.144;25.884;2023-11-22T10:43:04;40.10;;;29.13;;
47523;SDS011;33253;42.144;25.884;2023-11-22T10:45:33;39.80;;;28.08;;
47523;SDS011;33253;42.144;25.884;2023-11-22T10:48:02;44.72;;;27.95;;
47523;SDS011;33253;42.144;25.884;2023-11-22T10:50:27;39.33;;;26.87;;
47523;SDS011;33253;42.144;25.884;2023-11-22T10:52:53;40.95;;;28.00;;
47523;SDS011;33253;42.144;25.884;2023-11-22T10:55:25;37.65;;;27.08;;
47523;SDS011;33253;42.144;25.884;2023-11-22T11:00:20;40.40;;;29.88;;
47523;SDS011;33253;42.144;25.884;2023-11-22T11:02:50;48.22;;;28.95;;
47523;SDS011;33253;42.144;25.884;2023-11-22T11:05:22;37.65;;;27.08;;
47523;SDS011;33253;42.144;25.884;2023-11-22T11:08:04;40.00;;;27.63;;
47523;SDS011;33253;42.144;25.884;2023-11-22T11:10:40;35.80;;;26.88;;
47523;SDS011;33253;42.144;25.884;2023-11-22T11:13:09;43.72;;;28.98;;
47523;SDS011;33253;42.144;25.884;2023-11-22T11:15:35;43.17;;;29.65;;
47523;SDS011;33253;42.144;25.884;2023-11-22T11:18:03;45.03;;;33.45;;
47523;SDS011;33253;42.144;25.884;2023-11-22T11:20:43;45.67;;;31.90;;
47523;SDS011;33253;42.144;25.884;2023-11-22T11:23:14;46.88;;;36.95;;
47523;SDS011;33253;42.144;25.884;2023-11-22T11:25:41;47.90;;;33.42;;
47523;SDS011;33253;42.144;25.884;2023-11-22T11:28:11;52.85;;;31.83;;
47523;SDS011;33253;42.144;25.884;2023-11-22T11:30:43;40.38;;;29.00;;
47523;SDS011;33253;42.144;25.884;2023-11-22T11:33:11;49.88;;;28.45;;
47523;SDS011;33253;42.144;25.884;2023-11-22T11:35:42;41.78;;;28.35;;
47523;SDS011;33253;42.144;25.884;2023-11-22T11:38:11;49.00;;;28.23;;
47523;SDS011;33253;42.144;25.884;2023-11-22T11:40:42;47.50;;;30.27;;
47523;SDS011;33253;42.144;25.884;2023-11-22T11:43:09;57.40;;;36.67;;
47523;SDS011;33253;42.144;25.884;2023-11-22T11:45:37;59.33;;;50.08;;
47523;SDS011;33253;42.144;25.884;2023-11-22T11:48:14;47.20;;;31.83;;
47523;SDS011;33253;42.144;25.884;2023-11-22T11:53:06;42.05;;;24.00;;
47523;SDS011;33253;42.144;25.884;2023-11-22T11:55:32;37.55;;;24.33;;
47523;SDS011;33253;42.144;25.884;2023-11-22T11:58:03;37.42;;;25.35;;
47523;SDS011;33253;42.144;25.884;2023-11-22T12:00:30;36.10;;;24.50;;
47523;SDS011;33253;42.144;25.884;2023-11-22T12:02:55;37.58;;;24.40;;
47523;SDS011;33253;42.144;25.884;2023-11-22T12:05:21;34.95;;;23.38;;
47523;SDS011;33253;42.144;25.884;2023-11-22T12:07:47;36.30;;;23.17;;
47523;SDS011;33253;42.144;25.884;2023-11-22T12:10:13;33.53;;;23.40;;
47523;SDS011;33253;42.144;25.884;2023-11-22T12:12:39;35.58;;;24.00;;
47523;SDS011;33253;42.144;25.884;2023-11-22T12:15:05;36.38;;;24.92;;
47523;SDS011;33253;42.144;25.884;2023-11-22T12:17:31;35.17;;;21.90;;
47523;SDS011;33253;42.144;25.884;2023-11-22T12:20:13;35.90;;;23.33;;
47523;SDS011;33253;42.144;25.884;2023-11-22T12:22:40;30.60;;;23.00;;
47523;SDS011;33253;42.144;25.884;2023-11-22T12:25:06;29.88;;;21.83;;
47523;SDS011;33253;42.144;25.884;2023-11-22T12:27:53;31.63;;;21.70;;
47523;SDS011;33253;42.144;25.884;2023-11-22T12:33:00;31.25;;;21.83;;
47523;SDS011;33253;42.144;25.884;2023-11-22T12:35:29;29.17;;;21.23;;
47523;SDS011;33253;42.144;25.884;2023-11-22T12:37:58;31.08;;;21.17;;
47523;SDS011;33253;42.144;25.884;2023-11-22T12:40:24;33.95;;;21.33;;
47523;SDS011;33253;42.144;25.884;2023-11-22T12:42:52;26.17;;;20.30;;
47523;SDS011;33253;42.144;25.884;2023-11-22T12:45:21;30.90;;;19.50;;
47523;SDS011;33253;42.144;25.884;2023-11-22T12:47:51;25.75;;;20.25;;
47523;SDS011;33253;42.144;25.884;2023-11-22T12:50:30;25.35;;;19.35;;
47523;SDS011;33253;42.144;25.884;2023-11-22T12:53:07;27.15;;;20.15;;
47523;SDS011;33253;42.144;25.884;2023-11-22T12:55:37;28.33;;;20.35;;
47523;SDS011;33253;42.144;25.884;2023-11-22T12:58:26;30.00;;;21.30;;
47523;SDS011;33253;42.144;25.884;2023-11-22T13:00:53;30.50;;;21.33;;
47523;SDS011;33253;42.144;25.884;2023-11-22T13:03:23;30.58;;;22.42;;
47523;SDS011;33253;42.144;25.884;2023-11-22T13:05:50;29.20;;;21.60;;
47523;SDS011;33253;42.144;25.884;2023-11-22T13:08:17;27.20;;;19.58;;
47523;SDS011;33253;42.144;25.884;2023-11-22T13:10:43;24.63;;;18.77;;
47523;SDS011;33253;42.144;25.884;2023-11-22T13:13:12;29.88;;;20.17;;
47523;SDS011;33253;42.144;25.884;2023-11-22T13:15:37;26.30;;;19.30;;
47523;SDS011;33253;42.144;25.884;2023-11-22T13:18:05;24.45;;;18.55;;
47523;SDS011;33253;42.144;25.884;2023-11-22T13:20:31;25.08;;;18.50;;
47523;SDS011;33253;42.144;25.884;2023-11-22T13:22:57;26.63;;;19.20;;
47523;SDS011;33253;42.144;25.884;2023-11-22T13:25:25;26.20;;;18.50;;
47523;SDS011;33253;42.144;25.884;2023-11-22T13:27:51;29.08;;;19.10;;
47523;SDS011;33253;42.144;25.884;2023-11-22T13:30:18;32.28;;;24.83;;
47523;SDS011;33253;42.144;25.884;2023-11-22T13:35:14;27.17;;;21.17;;
47523;SDS011;33253;42.144;25.884;2023-11-22T13:37:44;32.83;;;22.17;;
47523;SDS011;33253;42.144;25.884;2023-11-22T13:40:11;37.30;;;22.35;;
47523;SDS011;33253;42.144;25.884;2023-11-22T13:42:46;28.58;;;20.95;;
47523;SDS011;33253;42.144;25.884;2023-11-22T13:45:15;28.38;;;19.45;;
47523;SDS011;33253;42.144;25.884;2023-11-22T13:47:45;23.67;;;17.08;;
47523;SDS011;33253;42.144;25.884;2023-11-22T13:50:25;20.60;;;15.88;;
47523;SDS011;33253;42.144;25.884;2023-11-22T13:52:55;22.25;;;15.73;;
47523;SDS011;33253;42.144;25.884;2023-11-22T13:55:21;18.80;;;15.55;;
47523;SDS011;33253;42.144;25.884;2023-11-22T13:57:53;18.77;;;14.85;;
47523;SDS011;33253;42.144;25.884;2023-11-22T14:00:23;19.90;;;15.32;;
47523;SDS011;33253;42.144;25.884;2023-11-22T14:02:53;19.08;;;14.32;;
47523;SDS011;33253;42.144;25.884;2023-11-22T14:05:25;19.98;;;15.00;;
47523;SDS011;33253;42.144;25.884;2023-11-22T14:07:54;19.73;;;14.27;;
47523;SDS011;33253;42.144;25.884;2023-11-22T14:10:20;20.58;;;15.05;;
47523;SDS011;33253;42.144;25.884;2023-11-22T14:12:47;20.98;;;15.02;;
47523;SDS011;33253;42.144;25.884;2023-11-22T14:15:13;18.30;;;14.27;;
47523;SDS011;33253;42.144;25.884;2023-11-22T14:17:39;18.45;;;14.73;;
47523;SDS011;33253;42.144;25.884;2023-11-22T14:20:09;20.98;;;15.45;;